createdAt,value
2018-05-27T00:01:06.440Z,60.13
2018-05-27T00:03:33.226Z,60.44
2018-05-27T00:06:00.048Z,60.77
2018-05-27T00:08:27.651Z,60.23
2018-05-27T00:10:54.436Z,60.14
2018-05-27T00:13:21.288Z,59.67
2018-05-27T00:15:48.333Z,60.29
2018-05-27T00:18:15.302Z,60.82
2018-05-27T00:20:42.856Z,60.57
2018-05-27T00:23:09.632Z,60.26
2018-05-27T00:25:36.480Z,61.15
2018-05-27T00:28:03.328Z,60.48
2018-05-27T00:30:30.152Z,60.99
2018-05-27T00:32:56.989Z,60.97
2018-05-27T00:35:23.813Z,60.96
2018-05-27T00:37:50.636Z,61.44
2018-05-27T00:40:17.465Z,61.66
2018-05-27T00:42:44.980Z,61.25
2018-05-27T00:45:18.736Z,62.60
2018-05-27T00:47:45.521Z,62.61
2018-05-27T00:50:12.298Z,62.15
2018-05-27T00:52:39.868Z,61.93
2018-05-27T00:55:07.387Z,62.86
2018-05-27T00:57:34.939Z,62.83
2018-05-27T01:00:01.780Z,62.62
2018-05-27T01:02:28.560Z,61.92
2018-05-27T01:04:55.381Z,62.58
2018-05-27T01:07:22.172Z,62.82
2018-05-27T01:09:49.036Z,62.81
2018-05-27T01:12:16.076Z,62.42
2018-05-27T01:14:42.897Z,63.10
2018-05-27T01:17:10.432Z,63.53
2018-05-27T01:19:37.527Z,63.78
2018-05-27T01:22:04.381Z,64.20
2018-05-27T01:24:31.220Z,64.85
2018-05-27T01:26:58.073Z,64.16
2018-05-27T01:29:24.848Z,64.56
2018-05-27T01:31:51.681Z,65.11
2018-05-27T01:34:19.296Z,64.70
2018-05-27T01:36:46.848Z,65.38
2018-05-27T01:39:14.379Z,64.87
2018-05-27T01:41:41.215Z,65.09
2018-05-27T01:44:08.003Z,65.84
2018-05-27T01:46:34.880Z,65.50
2018-05-27T01:49:01.689Z,66.18
2018-05-27T01:51:29.257Z,66.26
2018-05-27T01:53:56.099Z,65.82
2018-05-27T01:56:23.608Z,65.54
2018-05-27T01:58:51.355Z,66.47
2018-05-27T02:01:18.135Z,66.81
2018-05-27T02:03:44.911Z,66.94
2018-05-27T02:06:11.745Z,66.56
2018-05-27T02:08:39.268Z,66.26
2018-05-27T02:11:06.176Z,65.99
2018-05-27T02:13:32.990Z,65.48
2018-05-27T02:16:00.516Z,66.28
2018-05-27T02:18:27.479Z,67.43
2018-05-27T02:20:54.270Z,67.58
2018-05-27T02:23:21.097Z,67.74
2018-05-27T02:25:48.236Z,67.28
2018-05-27T02:28:16.000Z,66.65
2018-05-27T02:30:43.519Z,67.01
2018-05-27T02:33:10.331Z,67.05
2018-05-27T02:35:37.163Z,67.77
2018-05-27T02:38:04.416Z,67.71
2018-05-27T02:40:31.216Z,67.20
2018-05-27T02:42:58.036Z,67.76
2018-05-27T02:45:30.970Z,68.51
2018-05-27T02:47:57.825Z,68.20
2018-05-27T02:50:25.381Z,68.23
2018-05-27T02:52:52.897Z,69.01
2018-05-27T02:55:19.982Z,69.63
2018-05-27T02:57:47.505Z,68.88
2018-05-27T03:00:15.126Z,68.77
2018-05-27T03:02:41.932Z,69.14
2018-05-27T03:05:08.791Z,69.54
2018-05-27T03:07:35.633Z,70.35
2018-05-27T03:10:02.520Z,69.52
2018-05-27T03:12:29.537Z,69.95
2018-05-27T03:14:57.058Z,70.38
2018-05-27T03:17:23.851Z,70.17
2018-05-27T03:19:51.409Z,69.50
2018-05-27T03:22:18.971Z,68.76
2018-05-27T03:24:45.834Z,69.24
2018-05-27T03:27:12.668Z,68.45
2018-05-27T03:29:39.460Z,70.02
2018-05-27T03:32:06.423Z,68.78
2018-05-27T03:34:33.199Z,69.35
2018-05-27T03:37:00.075Z,69.11
2018-05-27T03:39:27.096Z,68.62
2018-05-27T03:41:53.915Z,68.13
2018-05-27T03:44:21.442Z,68.36
2018-05-27T03:46:48.288Z,68.17
2018-05-27T03:49:15.147Z,68.64
2018-05-27T03:51:41.924Z,68.44
2018-05-27T03:54:08.745Z,68.70
2018-05-27T03:56:36.260Z,68.70
2018-05-27T03:59:03.109Z,70.87
2018-05-27T04:01:30.677Z,69.39
2018-05-27T04:04:15.890Z,70.71
2018-05-27T04:07:01.856Z,69.54
2018-05-27T04:09:28.668Z,70.38
2018-05-27T04:11:56.389Z,69.69
2018-05-27T04:14:23.944Z,69.40
2018-05-27T04:16:51.502Z,69.20
2018-05-27T04:19:19.018Z,69.05
2018-05-27T04:21:46.179Z,69.22
2018-05-27T04:24:13.743Z,68.85
2018-05-27T04:26:40.608Z,70.05
2018-05-27T04:29:07.435Z,69.38
2018-05-27T04:31:34.217Z,67.76
2018-05-27T04:34:02.152Z,66.49
2018-05-27T04:36:29.039Z,66.68
2018-05-27T04:38:55.795Z,67.52
2018-05-27T04:41:22.647Z,67.99
2018-05-27T04:43:49.418Z,67.83
2018-05-27T04:46:16.289Z,67.70
2018-05-27T04:48:43.916Z,67.77
2018-05-27T04:51:10.748Z,66.46
2018-05-27T04:53:37.769Z,65.19
2018-05-27T04:56:04.683Z,64.03
2018-05-27T04:58:31.514Z,61.67
2018-05-27T05:00:58.351Z,60.51
2018-05-27T05:03:25.169Z,60.18
2018-05-27T05:05:52.015Z,59.73
2018-05-27T05:08:18.838Z,59.68
2018-05-27T05:10:45.625Z,58.37
2018-05-27T05:13:13.193Z,58.96
2018-05-27T05:15:44.031Z,57.88
2018-05-27T05:18:10.817Z,57.02
2018-05-27T05:20:37.635Z,58.22
2018-05-27T05:23:04.515Z,57.74
2018-05-27T05:25:31.344Z,56.56
2018-05-27T05:27:58.908Z,59.18
2018-05-27T05:30:25.759Z,59.14
2018-05-27T05:32:52.575Z,58.64
2018-05-27T05:35:20.136Z,56.45
2018-05-27T05:37:46.968Z,59.10
2018-05-27T05:40:14.550Z,57.12
2018-05-27T05:42:42.084Z,59.09
2018-05-27T05:45:08.936Z,58.89
2018-05-27T05:47:36.005Z,57.94
2018-05-27T05:50:02.881Z,57.78
2018-05-27T05:52:29.745Z,57.05
2018-05-27T05:54:56.516Z,56.57
2018-05-27T05:57:23.385Z,57.26
2018-05-27T05:59:50.903Z,55.71
2018-05-27T06:02:18.521Z,56.87
2018-05-27T06:04:45.292Z,55.54
2018-05-27T06:07:12.072Z,56.79
2018-05-27T06:09:38.895Z,54.64
2018-05-27T06:12:05.677Z,53.50
2018-05-27T06:14:32.549Z,55.45
2018-05-27T06:16:59.324Z,53.99
2018-05-27T06:19:26.916Z,54.23
2018-05-27T06:21:53.771Z,55.37
2018-05-27T06:24:21.283Z,54.11
2018-05-27T06:26:48.839Z,53.89
2018-05-27T06:29:15.660Z,52.94
2018-05-27T06:31:42.452Z,53.93
2018-05-27T06:34:09.264Z,52.30
2018-05-27T06:36:36.040Z,49.96
2018-05-27T06:39:03.007Z,50.87
2018-05-27T06:41:30.528Z,51.21
2018-05-27T06:43:57.360Z,52.33
2018-05-27T06:46:24.231Z,50.78
2018-05-27T06:48:51.041Z,50.61
2018-05-27T06:51:18.713Z,49.67
2018-05-27T06:53:45.466Z,50.75
2018-05-27T06:56:12.438Z,50.63
2018-05-27T06:58:39.260Z,49.91
2018-05-27T07:01:06.095Z,48.89
2018-05-27T07:03:33.658Z,48.45
2018-05-27T07:06:00.476Z,49.64
2018-05-27T07:08:28.773Z,49.12
2018-05-27T07:10:56.296Z,48.20
2018-05-27T07:13:23.963Z,48.40
2018-05-27T07:15:50.780Z,47.82
2018-05-27T07:18:18.368Z,47.84
2018-05-27T07:20:45.151Z,46.06
2018-05-27T07:23:11.976Z,46.25
2018-05-27T07:25:38.772Z,46.37
2018-05-27T07:28:05.694Z,45.51
2018-05-27T07:30:33.143Z,46.27
2018-05-27T07:32:59.937Z,46.66
2018-05-27T07:35:26.757Z,45.86
2018-05-27T07:37:54.307Z,45.50
2018-05-27T07:40:21.188Z,47.05
2018-05-27T07:42:47.968Z,46.10
2018-05-27T07:45:20.919Z,45.17
2018-05-27T07:47:47.834Z,45.47
2018-05-27T07:50:15.919Z,43.91
2018-05-27T07:52:42.797Z,44.51
2018-05-27T07:55:09.562Z,44.33
2018-05-27T07:57:36.383Z,44.51
2018-05-27T08:00:03.221Z,44.15
2018-05-27T08:02:30.036Z,45.29
2018-05-27T08:04:56.865Z,44.95
2018-05-27T08:07:23.688Z,45.03
2018-05-27T08:09:50.568Z,44.47
2018-05-27T08:12:18.157Z,42.92
2018-05-27T08:14:44.940Z,44.29
2018-05-27T08:17:11.920Z,43.42
2018-05-27T08:19:39.472Z,42.68
2018-05-27T08:22:06.990Z,41.22
2018-05-27T08:27:07.416Z,42.19
2018-05-27T08:29:34.380Z,41.00
2018-05-27T08:32:01.160Z,43.15
2018-05-27T08:34:27.937Z,41.79
2018-05-27T08:36:54.755Z,40.92
2018-05-27T08:39:21.580Z,39.88
2018-05-27T08:41:48.419Z,39.15
2018-05-27T08:44:15.236Z,40.23
2018-05-27T08:46:42.043Z,40.40
2018-05-27T08:49:09.610Z,41.38
2018-05-27T08:51:36.409Z,39.69
2018-05-27T08:54:03.248Z,41.13
2018-05-27T08:56:30.023Z,40.45
2018-05-27T08:58:57.611Z,39.47
2018-05-27T09:01:24.966Z,39.77
2018-05-27T09:03:52.237Z,41.43
2018-05-27T09:06:19.274Z,40.24
2018-05-27T09:08:46.051Z,38.16
2018-05-27T09:11:12.901Z,39.42
2018-05-27T09:13:39.858Z,40.53
2018-05-27T09:16:06.620Z,37.89
2018-05-27T09:18:33.436Z,35.88
2018-05-27T09:21:00.284Z,36.63
2018-05-27T09:23:27.056Z,37.37
2018-05-27T09:25:54.642Z,37.91
2018-05-27T09:28:21.460Z,38.05
2018-05-27T09:30:48.283Z,36.94
2018-05-27T09:33:15.060Z,38.24
2018-05-27T09:35:41.868Z,39.20
2018-05-27T09:38:08.646Z,37.75
2018-05-27T09:40:35.407Z,36.63
2018-05-27T09:43:02.292Z,37.52
2018-05-27T09:45:35.269Z,38.82
2018-05-27T09:48:02.088Z,38.98
2018-05-27T09:50:28.921Z,39.25
2018-05-27T09:52:55.692Z,38.74
2018-05-27T09:55:22.531Z,37.70
2018-05-27T09:57:49.490Z,37.76
2018-05-27T10:00:16.296Z,34.67
2018-05-27T10:02:43.068Z,35.64
2018-05-27T10:05:09.896Z,34.10
2018-05-27T10:07:36.811Z,34.89
2018-05-27T10:10:03.614Z,34.24
2018-05-27T10:12:30.425Z,34.41
2018-05-27T10:14:57.223Z,34.85
2018-05-27T10:17:25.008Z,35.44
2018-05-27T10:19:51.868Z,34.09
2018-05-27T10:22:18.684Z,33.66
2018-05-27T10:24:46.202Z,33.56
2018-05-27T10:27:13.067Z,34.02
2018-05-27T10:29:39.833Z,34.29
2018-05-27T10:32:06.664Z,33.64
2018-05-27T10:34:34.244Z,33.86
2018-05-27T10:37:01.746Z,32.70
2018-05-27T10:39:29.250Z,32.22
2018-05-27T10:41:56.935Z,32.25
2018-05-27T10:44:23.752Z,33.25
2018-05-27T10:46:51.259Z,34.55
2018-05-27T10:49:18.075Z,33.36
2018-05-27T10:51:44.834Z,33.25
2018-05-27T10:54:11.627Z,33.08
2018-05-27T10:56:38.648Z,32.64
2018-05-27T10:59:05.447Z,33.24
2018-05-27T11:01:32.218Z,31.72
2018-05-27T11:04:00.180Z,32.05
2018-05-27T11:06:26.944Z,32.23
2018-05-27T11:08:53.788Z,32.12
2018-05-27T11:11:21.352Z,33.35
2018-05-27T11:13:48.122Z,32.50
2018-05-27T11:16:14.877Z,33.35
2018-05-27T11:18:42.428Z,33.74
2018-05-27T11:21:09.253Z,34.28
2018-05-27T11:23:36.018Z,34.06
2018-05-27T11:26:03.579Z,34.45
2018-05-27T11:28:31.159Z,32.94
2018-05-27T11:30:57.976Z,33.12
2018-05-27T11:33:24.799Z,33.39
2018-05-27T11:35:51.556Z,30.63
2018-05-27T11:38:18.717Z,29.61
2018-05-27T11:40:46.256Z,30.15
2018-05-27T11:43:13.491Z,29.52
2018-05-27T11:45:41.044Z,30.01
2018-05-27T11:48:07.809Z,29.82
2018-05-27T11:50:34.727Z,29.46
2018-05-27T11:53:01.539Z,28.78
2018-05-27T11:55:28.332Z,28.47
2018-05-27T11:57:55.932Z,29.00
2018-05-27T12:00:23.440Z,29.00
2018-05-27T12:02:50.206Z,27.58
2018-05-27T12:05:17.011Z,29.06
2018-05-27T12:07:43.777Z,29.04
2018-05-27T12:10:11.356Z,29.45
2018-05-27T12:12:38.173Z,29.13
2018-05-27T12:15:05.187Z,28.75
2018-05-27T12:17:32.700Z,28.78
2018-05-27T12:19:59.742Z,29.57
2018-05-27T12:22:27.675Z,29.72
2018-05-27T12:24:54.717Z,29.55
2018-05-27T12:27:21.526Z,28.84
2018-05-27T12:29:48.374Z,28.51
2018-05-27T12:32:15.192Z,29.06
2018-05-27T12:34:42.093Z,29.39
2018-05-27T12:37:08.864Z,28.61
2018-05-27T12:39:36.047Z,28.56
2018-05-27T12:42:02.914Z,29.08
2018-05-27T12:44:30.414Z,27.86
2018-05-27T12:46:57.327Z,26.99
2018-05-27T12:49:25.018Z,26.54
2018-05-27T12:51:51.808Z,26.91
2018-05-27T12:54:18.641Z,26.92
2018-05-27T12:56:45.466Z,26.64
2018-05-27T12:59:13.039Z,26.58
2018-05-27T13:01:39.836Z,26.23
2018-05-27T13:04:06.726Z,26.70
2018-05-27T13:06:33.506Z,25.54
2018-05-27T13:09:01.089Z,25.00
2018-05-27T13:11:27.976Z,24.87
2018-05-27T13:13:54.799Z,25.67
2018-05-27T13:16:21.646Z,24.70
2018-05-27T13:18:48.544Z,25.07
2018-05-27T13:21:16.100Z,25.60
2018-05-27T13:23:42.935Z,25.57
2018-05-27T13:26:09.887Z,25.48
2018-05-27T13:28:37.063Z,24.70
2018-05-27T13:31:03.959Z,25.43
2018-05-27T13:33:30.923Z,25.63
2018-05-27T13:35:57.773Z,25.50
2018-05-27T13:38:25.296Z,26.46
2018-05-27T13:40:52.207Z,26.47
2018-05-27T13:43:19.695Z,26.72
2018-05-27T13:45:46.460Z,27.42
2018-05-27T13:48:13.324Z,26.82
2018-05-27T13:50:40.086Z,26.32
2018-05-27T13:53:07.596Z,26.58
2018-05-27T13:55:34.396Z,26.13
2018-05-27T13:58:01.164Z,25.43
2018-05-27T14:00:28.739Z,26.31
2018-05-27T14:02:55.544Z,25.10
2018-05-27T14:05:22.325Z,25.86
2018-05-27T14:07:49.113Z,25.04
2018-05-27T14:10:15.997Z,25.31
2018-05-27T14:12:42.832Z,26.39
2018-05-27T14:15:16.327Z,26.39
2018-05-27T14:17:43.103Z,26.63
2018-05-27T14:20:09.886Z,26.83
2018-05-27T14:22:37.444Z,27.15
2018-05-27T14:25:04.311Z,27.18
2018-05-27T14:27:31.096Z,28.03
2018-05-27T14:29:58.063Z,28.52
2018-05-27T14:32:24.907Z,28.27
2018-05-27T14:34:51.675Z,28.26
2018-05-27T14:37:18.712Z,28.92
2018-05-27T14:39:46.260Z,29.47
2018-05-27T14:42:13.067Z,28.83
2018-05-27T14:44:39.876Z,29.07
2018-05-27T14:47:06.655Z,29.04
2018-05-27T14:49:34.226Z,28.19
2018-05-27T14:52:01.074Z,28.35
2018-05-27T14:54:27.863Z,28.11
2018-05-27T14:56:55.439Z,28.15
2018-05-27T14:59:22.375Z,28.78
2018-05-27T15:01:49.252Z,28.97
2018-05-27T15:04:16.023Z,28.62
2018-05-27T15:06:42.874Z,28.62
2018-05-27T15:09:09.676Z,28.87
2018-05-27T15:11:36.490Z,28.88
2018-05-27T15:14:03.560Z,28.88
2018-05-27T15:16:30.332Z,27.82
2018-05-27T15:18:57.132Z,28.14
2018-05-27T15:21:25.435Z,28.04
2018-05-27T15:23:53.517Z,27.56
2018-05-27T15:26:21.787Z,28.08
2018-05-27T15:28:49.682Z,28.42
2018-05-27T15:31:17.405Z,28.19
2018-05-27T15:33:50.030Z,28.52
2018-05-27T15:36:20.277Z,28.96
2018-05-27T15:38:51.106Z,28.80
2018-05-27T15:41:23.462Z,28.49
2018-05-27T15:43:52.444Z,28.37
2018-05-27T15:46:20.776Z,27.85
2018-05-27T15:48:47.993Z,27.89
2018-05-27T15:51:15.024Z,27.95
2018-05-27T15:53:42.533Z,28.08
2018-05-27T15:56:09.767Z,27.77
2018-05-27T15:58:37.878Z,27.80
2018-05-27T16:01:05.386Z,28.02
2018-05-27T16:03:33.214Z,28.47
2018-05-27T16:06:01.063Z,28.48
2018-05-27T16:08:28.585Z,28.00
2018-05-27T16:10:56.479Z,28.16
2018-05-27T16:13:24.647Z,28.91
2018-05-27T16:15:53.775Z,28.55
2018-05-27T16:18:21.604Z,28.91
2018-05-27T16:20:49.112Z,29.06
2018-05-27T16:23:15.944Z,29.24
2018-05-27T16:25:43.597Z,29.63
2018-05-27T16:28:10.372Z,28.95
2018-05-27T16:30:37.280Z,28.58
2018-05-27T16:33:04.091Z,29.02
2018-05-27T16:35:30.874Z,29.12
2018-05-27T16:37:57.794Z,29.44
2018-05-27T16:40:25.323Z,29.38
2018-05-27T16:42:52.088Z,29.62
2018-05-27T16:45:24.896Z,29.84
2018-05-27T16:47:51.729Z,29.58
2018-05-27T16:50:18.568Z,30.12
2018-05-27T16:52:46.158Z,30.05
2018-05-27T16:55:12.971Z,30.44
2018-05-27T16:57:40.488Z,30.58
2018-05-27T17:00:07.391Z,30.80
2018-05-27T17:02:34.183Z,30.54
2018-05-27T17:05:00.959Z,30.75
2018-05-27T17:07:28.852Z,30.43
2018-05-27T17:09:55.628Z,30.61
2018-05-27T17:12:22.453Z,30.40
2018-05-27T17:14:50.095Z,31.02
2018-05-27T17:17:16.866Z,31.04
2018-05-27T17:19:43.633Z,31.49
2018-05-27T17:22:10.448Z,31.46
2018-05-27T17:24:37.240Z,31.65
2018-05-27T17:27:04.234Z,31.53
2018-05-27T17:29:31.043Z,32.63
2018-05-27T17:31:58.555Z,34.81
2018-05-27T17:34:25.352Z,37.40
2018-05-27T17:36:52.956Z,38.49
2018-05-27T17:39:20.526Z,39.18
2018-05-27T17:41:47.299Z,39.75
2018-05-27T17:44:14.127Z,40.00
2018-05-27T17:46:40.916Z,39.91
2018-05-27T17:49:07.687Z,40.39
2018-05-27T17:51:35.436Z,40.45
2018-05-27T17:54:02.991Z,41.18
2018-05-27T17:56:29.769Z,41.75
2018-05-27T17:58:56.736Z,42.41
2018-05-27T18:01:23.520Z,42.64
2018-05-27T18:03:50.364Z,43.23
2018-05-27T18:06:17.194Z,43.69
2018-05-27T18:08:43.984Z,43.96
2018-05-27T18:11:10.781Z,44.18
2018-05-27T18:13:38.035Z,45.67
2018-05-27T18:16:11.020Z,45.94
2018-05-27T18:18:38.563Z,46.08
2018-05-27T18:21:05.384Z,46.63
2018-05-27T18:23:32.382Z,47.04
2018-05-27T18:25:59.156Z,47.31
2018-05-27T18:28:26.857Z,47.49
2018-05-27T18:30:53.622Z,48.28
2018-05-27T18:33:21.132Z,48.16
2018-05-27T18:35:47.968Z,48.77
2018-05-27T18:38:14.789Z,49.42
2018-05-27T18:40:41.608Z,49.41
2018-05-27T18:43:09.170Z,50.19
2018-05-27T18:45:42.028Z,50.31
2018-05-27T18:48:08.825Z,50.96
2018-05-27T18:50:35.733Z,51.08
2018-05-27T18:53:02.563Z,51.08
2018-05-27T18:55:29.352Z,51.72
2018-05-27T18:57:56.193Z,51.49
2018-05-27T19:00:22.971Z,51.70
2018-05-27T19:02:49.979Z,52.16
2018-05-27T19:05:17.052Z,52.07
2018-05-27T19:07:43.826Z,52.29
2018-05-27T19:10:10.596Z,52.42
2018-05-27T19:12:38.139Z,52.73
2018-05-27T19:15:04.984Z,52.46
2018-05-27T19:17:31.839Z,52.95
2018-05-27T19:19:59.355Z,53.16
2018-05-27T19:22:26.178Z,53.77
2018-05-27T19:24:52.951Z,53.83
2018-05-27T19:27:19.720Z,54.28
2018-05-27T19:29:46.594Z,54.28
2018-05-27T19:32:13.410Z,53.98
2018-05-27T19:34:40.164Z,54.29
2018-05-27T19:37:07.719Z,54.62
2018-05-27T19:39:35.227Z,54.98
2018-05-27T19:42:02.818Z,54.97
2018-05-27T19:44:29.632Z,55.34
2018-05-27T19:46:57.465Z,55.77
2018-05-27T19:49:24.327Z,55.73
2018-05-27T19:51:51.182Z,56.33
2018-05-27T19:54:18.753Z,55.90
2018-05-27T19:56:45.530Z,56.51
2018-05-27T19:59:12.447Z,56.65
2018-05-27T20:01:39.231Z,56.77
2018-05-27T20:04:06.759Z,56.96
2018-05-27T20:06:33.896Z,57.22
2018-05-27T20:09:00.689Z,57.10
2018-05-27T20:11:28.204Z,57.12
2018-05-27T20:13:55.065Z,57.29
2018-05-27T20:16:21.839Z,57.34
2018-05-27T20:18:48.757Z,57.46
2018-05-27T20:21:15.587Z,57.76
2018-05-27T20:23:42.959Z,58.39
2018-05-27T20:26:09.724Z,58.37
2018-05-27T20:28:37.276Z,58.47
2018-05-27T20:31:04.106Z,58.56
2018-05-27T20:33:30.882Z,59.00
2018-05-27T20:35:57.686Z,59.14
2018-05-27T20:38:24.451Z,59.47
2018-05-27T20:40:51.963Z,59.13
2018-05-27T20:43:19.588Z,59.18
2018-05-27T20:45:52.420Z,59.13
2018-05-27T20:48:20.020Z,59.38
2018-05-27T20:50:46.816Z,59.81
2018-05-27T20:53:13.591Z,59.81
2018-05-27T20:55:40.473Z,59.69
2018-05-27T20:58:07.256Z,59.95
2018-05-27T21:00:34.032Z,60.03
2018-05-27T21:03:01.589Z,59.58
2018-05-27T21:05:29.210Z,60.13
2018-05-27T21:07:56.832Z,60.08
2018-05-27T21:10:23.602Z,59.84
2018-05-27T21:12:50.372Z,59.23
2018-05-27T21:15:23.039Z,59.35
2018-05-27T21:17:49.824Z,59.45
2018-05-27T21:20:16.746Z,59.52
2018-05-27T21:22:43.561Z,60.23
2018-05-27T21:25:10.336Z,61.16
2018-05-27T21:27:37.411Z,61.19
2018-05-27T21:30:04.951Z,61.41
2018-05-27T21:32:31.800Z,61.82
2018-05-27T21:34:59.586Z,61.51
2018-05-27T21:37:27.096Z,61.26
2018-05-27T21:39:53.869Z,61.21
2018-05-27T21:42:21.423Z,61.16
2018-05-27T21:44:48.243Z,61.21
2018-05-27T21:47:15.018Z,61.08
2018-05-27T21:49:42.591Z,61.35
2018-05-27T21:52:10.353Z,61.34
2018-05-27T21:54:37.863Z,61.87
2018-05-27T21:57:05.475Z,62.14
2018-05-27T21:59:33.004Z,61.64
2018-05-27T22:01:59.771Z,61.83
2018-05-27T22:04:27.480Z,62.41
2018-05-27T22:06:54.239Z,62.15
2018-05-27T22:09:21.060Z,62.05
2018-05-27T22:11:47.975Z,61.84
2018-05-27T22:14:15.486Z,62.38
2018-05-27T22:16:42.300Z,62.08
2018-05-27T22:19:09.268Z,62.69
2018-05-27T22:21:36.202Z,62.83
2018-05-27T22:24:03.338Z,62.89
2018-05-27T22:26:30.295Z,63.09
2018-05-27T22:28:57.059Z,62.76
2018-05-27T22:31:23.831Z,62.59
2018-05-27T22:33:50.703Z,62.87
2018-05-27T22:36:18.451Z,62.72
2018-05-27T22:38:45.984Z,63.59
2018-05-27T22:41:12.804Z,63.56
2018-05-27T22:43:39.579Z,63.68
2018-05-27T22:46:06.413Z,63.32
2018-05-27T22:48:33.230Z,63.50
2018-05-27T22:51:00.017Z,63.12
2018-05-27T22:53:26.798Z,63.84
2018-05-27T22:55:59.530Z,63.53
2018-05-27T22:58:26.340Z,63.95
2018-05-27T23:00:53.315Z,64.10
2018-05-27T23:03:19.941Z,64.00
2018-05-27T23:05:46.720Z,64.17
2018-05-27T23:08:19.728Z,64.52
2018-05-27T23:10:46.419Z,64.44
2018-05-27T23:13:13.063Z,64.34
2018-05-27T23:15:39.875Z,64.57
2018-05-27T23:18:06.648Z,64.72
2018-05-27T23:20:33.419Z,64.48
2018-05-27T23:23:01.051Z,64.91
2018-05-27T23:25:27.796Z,64.95
2018-05-27T23:27:54.535Z,65.05
2018-05-27T23:30:21.355Z,65.52
2018-05-27T23:32:48.130Z,65.55
2018-05-27T23:35:14.963Z,65.94
2018-05-27T23:37:41.779Z,66.03
2018-05-27T23:40:08.562Z,66.31
2018-05-27T23:42:35.388Z,66.06
2018-05-27T23:45:02.174Z,65.81
2018-05-27T23:47:28.880Z,66.17
2018-05-27T23:49:55.580Z,66.40
2018-05-27T23:52:22.221Z,66.31
2018-05-27T23:54:49.589Z,66.37
2018-05-27T23:57:16.743Z,66.25
2018-05-27T23:59:43.569Z,65.93
